Terminal Aerodrome Forecast
Issued by NWS

Home | Current Version | Previous Version | Text Only | Print | Product List | Glossary On
Versions: 1 2 3 4 5 6 7 8 9 10 11 12 13 14 15 16 17 18 19 20
163
FTUS43 KJKL 250528
TAFSJS
TAF
KSJS 250528Z 2506/2606 23006KT P6SM -SHRA BKN025
     FM250700 22006KT P6SM BKN015
     FM251000 22006KT P6SM VCSH BKN020
     FM251500 23008KT P6SM -SHRA OVC015
     FM251800 23007KT 3SM -SHRA OVC010=

USA.gov is the U.S. government's official web portal to all federal, state and local government web resources and services.